Main page
METAR-TAF:

METAR-TAF

Airports :

Athens International Airport

Athens, Greece

latitude: 37-56N, longitude: 023-56E, elevation: 94 m

Current weather observation

The report was made 30 minutes ago, at 21:50 UTC
Calm wind
Temperature 18°C
Humidity 73%
Pressure 1016 hPa
Visibility 10 km or more
no clouds below 1500 m and no cumulonimbus

METAR: LGAV 162150Z 00000KT CAVOK 18/13 Q1016 NOSIG

Time: 01:20 (22:20 UTC)

Forecast

The report was made 5 hours and 20 minutes ago, at 17:00 UTC
Forecast valid from 16 at 18 UTC to 17 at 18 UTC
Wind 5 kt from variable directions
Visibility 10 km or more
Few clouds at a height of 2500 ft
Becoming
from 17 at 09 UTC to 17 at 11 UTC
Wind 10 kt from the Southeast
Temporary
from 17 at 12 UTC to 17 at 16 UTC
Scattered clouds at a height of 2500 ft

TAF: LGAV 161700Z 1618/1718 VRB05KT 9999 FEW025 BECMG 1709/1711 14010KT TEMPO 1712/1716 SCT025

Weather observations and forecasts of more than 4000 airports (METAR and TAF reports).

The available stations are represented by yellow and red dots on the map.

Hover mouse over dot to see the name of the station.

Then click to see weather observations and forecasts.

To change the map : click on the green buttons with a black cross to zoom in, on the green button with a dash to zoom out, or on the green arrows for adjacent maps.


METAR-TAF: